sensor_id;sensor_type;location;lat;lon;timestamp;P1;durP1;ratioP1;P2;durP2;ratioP2
28627;SDS011;15815;46.760;19.604;2022-12-07T00:01:12;79.00;;;38.28;;
28627;SDS011;15815;46.760;19.604;2022-12-07T00:03:44;66.97;;;32.08;;
28627;SDS011;15815;46.760;19.604;2022-12-07T00:06:12;56.72;;;28.25;;
28627;SDS011;15815;46.760;19.604;2022-12-07T00:08:40;39.05;;;23.52;;
28627;SDS011;15815;46.760;19.604;2022-12-07T00:11:06;39.38;;;21.90;;
28627;SDS011;15815;46.760;19.604;2022-12-07T00:13:33;38.50;;;23.30;;
28627;SDS011;15815;46.760;19.604;2022-12-07T00:16:13;48.85;;;27.60;;
28627;SDS011;15815;46.760;19.604;2022-12-07T00:18:41;49.97;;;31.35;;
28627;SDS011;15815;46.760;19.604;2022-12-07T00:21:10;48.60;;;29.73;;
28627;SDS011;15815;46.760;19.604;2022-12-07T00:23:38;47.35;;;26.35;;
28627;SDS011;15815;46.760;19.604;2022-12-07T00:28:35;40.55;;;24.17;;
28627;SDS011;15815;46.760;19.604;2022-12-07T00:31:04;44.25;;;23.45;;
28627;SDS011;15815;46.760;19.604;2022-12-07T00:33:32;38.22;;;21.85;;
28627;SDS011;15815;46.760;19.604;2022-12-07T00:35:58;35.42;;;20.65;;
28627;SDS011;15815;46.760;19.604;2022-12-07T00:38:24;30.00;;;19.83;;
28627;SDS011;15815;46.760;19.604;2022-12-07T00:40:54;32.08;;;18.83;;
28627;SDS011;15815;46.760;19.604;2022-12-07T00:43:20;29.40;;;18.02;;
28627;SDS011;15815;46.760;19.604;2022-12-07T00:45:46;28.05;;;17.10;;
28627;SDS011;15815;46.760;19.604;2022-12-07T00:48:11;24.98;;;16.27;;
28627;SDS011;15815;46.760;19.604;2022-12-07T00:50:36;28.42;;;16.83;;
28627;SDS011;15815;46.760;19.604;2022-12-07T00:53:02;28.58;;;17.35;;
28627;SDS011;15815;46.760;19.604;2022-12-07T00:55:32;24.95;;;15.60;;
28627;SDS011;15815;46.760;19.604;2022-12-07T00:58:01;23.80;;;15.70;;
28627;SDS011;15815;46.760;19.604;2022-12-07T01:00:27;28.35;;;15.68;;
28627;SDS011;15815;46.760;19.604;2022-12-07T01:02:53;24.75;;;15.68;;
28627;SDS011;15815;46.760;19.604;2022-12-07T01:05:18;24.35;;;16.80;;
28627;SDS011;15815;46.760;19.604;2022-12-07T01:07:43;24.70;;;16.13;;
28627;SDS011;15815;46.760;19.604;2022-12-07T01:10:09;25.40;;;15.80;;
28627;SDS011;15815;46.760;19.604;2022-12-07T01:12:35;22.15;;;14.95;;
28627;SDS011;15815;46.760;19.604;2022-12-07T01:15:00;21.95;;;14.38;;
28627;SDS011;15815;46.760;19.604;2022-12-07T01:17:26;21.88;;;14.80;;
28627;SDS011;15815;46.760;19.604;2022-12-07T01:19:51;24.27;;;14.73;;
28627;SDS011;15815;46.760;19.604;2022-12-07T01:22:16;23.90;;;14.32;;
28627;SDS011;15815;46.760;19.604;2022-12-07T01:24:42;25.92;;;15.75;;
28627;SDS011;15815;46.760;19.604;2022-12-07T01:27:07;25.50;;;14.77;;
28627;SDS011;15815;46.760;19.604;2022-12-07T01:29:32;26.77;;;17.95;;
28627;SDS011;15815;46.760;19.604;2022-12-07T01:31:58;31.92;;;19.10;;
28627;SDS011;15815;46.760;19.604;2022-12-07T01:34:23;37.90;;;23.15;;
28627;SDS011;15815;46.760;19.604;2022-12-07T01:36:48;32.50;;;19.10;;
28627;SDS011;15815;46.760;19.604;2022-12-07T01:39:14;39.33;;;19.63;;
28627;SDS011;15815;46.760;19.604;2022-12-07T01:41:40;30.38;;;18.10;;
28627;SDS011;15815;46.760;19.604;2022-12-07T01:46:55;29.05;;;16.58;;
28627;SDS011;15815;46.760;19.604;2022-12-07T01:49:31;26.60;;;14.70;;
28627;SDS011;15815;46.760;19.604;2022-12-07T01:52:42;22.77;;;14.80;;
28627;SDS011;15815;46.760;19.604;2022-12-07T01:54:53;22.90;;;14.52;;
28627;SDS011;15815;46.760;19.604;2022-12-07T01:57:22;21.67;;;14.00;;
28627;SDS011;15815;46.760;19.604;2022-12-07T01:59:48;22.70;;;14.30;;
28627;SDS011;15815;46.760;19.604;2022-12-07T02:02:32;23.10;;;14.00;;
28627;SDS011;15815;46.760;19.604;2022-12-07T02:05:00;25.52;;;13.70;;
28627;SDS011;15815;46.760;19.604;2022-12-07T02:07:27;20.98;;;14.02;;
28627;SDS011;15815;46.760;19.604;2022-12-07T02:10:11;20.70;;;13.65;;
28627;SDS011;15815;46.760;19.604;2022-12-07T02:12:43;23.30;;;13.35;;
28627;SDS011;15815;46.760;19.604;2022-12-07T02:15:12;24.52;;;14.20;;
28627;SDS011;15815;46.760;19.604;2022-12-07T02:23:27;20.83;;;14.02;;
28627;SDS011;15815;46.760;19.604;2022-12-07T02:31:28;20.70;;;13.30;;
28627;SDS011;15815;46.760;19.604;2022-12-07T02:33:58;20.80;;;13.00;;
28627;SDS011;15815;46.760;19.604;2022-12-07T02:36:36;24.25;;;13.75;;
28627;SDS011;15815;46.760;19.604;2022-12-07T02:41:40;25.75;;;14.70;;
28627;SDS011;15815;46.760;19.604;2022-12-07T02:44:13;27.10;;;15.98;;
28627;SDS011;15815;46.760;19.604;2022-12-07T02:46:45;25.80;;;14.57;;
28627;SDS011;15815;46.760;19.604;2022-12-07T02:49:15;881.78;;;58.65;;
28627;SDS011;15815;46.760;19.604;2022-12-07T02:51:41;22.83;;;13.70;;
28627;SDS011;15815;46.760;19.604;2022-12-07T02:54:12;23.40;;;14.18;;
28627;SDS011;15815;46.760;19.604;2022-12-07T02:56:44;26.20;;;15.50;;
28627;SDS011;15815;46.760;19.604;2022-12-07T03:07:48;37.00;;;18.77;;
28627;SDS011;15815;46.760;19.604;2022-12-07T03:10:35;39.22;;;20.38;;
28627;SDS011;15815;46.760;19.604;2022-12-07T03:13:12;34.78;;;18.10;;
28627;SDS011;15815;46.760;19.604;2022-12-07T03:15:58;31.00;;;18.30;;
28627;SDS011;15815;46.760;19.604;2022-12-07T03:18:27;34.40;;;18.83;;
28627;SDS011;15815;46.760;19.604;2022-12-07T03:20:57;33.35;;;18.98;;
28627;SDS011;15815;46.760;19.604;2022-12-07T03:23:26;34.38;;;17.95;;
28627;SDS011;15815;46.760;19.604;2022-12-07T03:25:55;38.47;;;17.98;;
28627;SDS011;15815;46.760;19.604;2022-12-07T03:28:24;32.33;;;18.63;;
28627;SDS011;15815;46.760;19.604;2022-12-07T03:31:05;31.33;;;16.83;;
28627;SDS011;15815;46.760;19.604;2022-12-07T03:36:34;31.55;;;17.80;;
28627;SDS011;15815;46.760;19.604;2022-12-07T03:41:47;26.58;;;15.70;;
28627;SDS011;15815;46.760;19.604;2022-12-07T03:44:14;24.13;;;15.90;;
28627;SDS011;15815;46.760;19.604;2022-12-07T03:49:26;25.42;;;15.75;;
28627;SDS011;15815;46.760;19.604;2022-12-07T03:51:57;23.83;;;14.45;;
28627;SDS011;15815;46.760;19.604;2022-12-07T03:54:26;25.13;;;15.85;;
28627;SDS011;15815;46.760;19.604;2022-12-07T03:56:57;29.17;;;16.58;;
28627;SDS011;15815;46.760;19.604;2022-12-07T03:59:23;39.45;;;18.83;;
28627;SDS011;15815;46.760;19.604;2022-12-07T04:01:55;34.85;;;18.85;;
28627;SDS011;15815;46.760;19.604;2022-12-07T04:04:22;27.13;;;16.70;;
28627;SDS011;15815;46.760;19.604;2022-12-07T04:06:49;26.20;;;15.07;;
28627;SDS011;15815;46.760;19.604;2022-12-07T04:09:14;25.55;;;15.23;;
28627;SDS011;15815;46.760;19.604;2022-12-07T04:11:40;24.58;;;14.68;;
28627;SDS011;15815;46.760;19.604;2022-12-07T04:14:05;23.50;;;14.75;;
28627;SDS011;15815;46.760;19.604;2022-12-07T04:16:47;27.35;;;15.75;;
28627;SDS011;15815;46.760;19.604;2022-12-07T04:19:14;27.98;;;16.70;;
28627;SDS011;15815;46.760;19.604;2022-12-07T04:21:41;24.38;;;15.48;;
28627;SDS011;15815;46.760;19.604;2022-12-07T04:24:06;36.42;;;18.40;;
28627;SDS011;15815;46.760;19.604;2022-12-07T04:26:32;36.55;;;20.48;;
28627;SDS011;15815;46.760;19.604;2022-12-07T04:28:57;33.45;;;17.88;;
28627;SDS011;15815;46.760;19.604;2022-12-07T04:31:23;40.08;;;18.98;;
28627;SDS011;15815;46.760;19.604;2022-12-07T04:33:48;35.80;;;18.45;;
28627;SDS011;15815;46.760;19.604;2022-12-07T04:36:14;42.78;;;22.27;;
28627;SDS011;15815;46.760;19.604;2022-12-07T04:38:41;35.97;;;19.17;;
28627;SDS011;15815;46.760;19.604;2022-12-07T04:41:07;37.53;;;19.50;;
28627;SDS011;15815;46.760;19.604;2022-12-07T04:43:33;40.53;;;21.67;;
28627;SDS011;15815;46.760;19.604;2022-12-07T04:45:59;36.05;;;20.30;;
28627;SDS011;15815;46.760;19.604;2022-12-07T04:48:25;36.90;;;20.77;;
28627;SDS011;15815;46.760;19.604;2022-12-07T04:50:50;41.55;;;21.17;;
28627;SDS011;15815;46.760;19.604;2022-12-07T04:53:15;36.33;;;18.88;;
28627;SDS011;15815;46.760;19.604;2022-12-07T04:55:41;35.30;;;19.05;;
28627;SDS011;15815;46.760;19.604;2022-12-07T04:58:06;34.70;;;19.90;;
28627;SDS011;15815;46.760;19.604;2022-12-07T05:00:32;36.40;;;19.42;;
28627;SDS011;15815;46.760;19.604;2022-12-07T05:02:57;35.55;;;21.08;;
28627;SDS011;15815;46.760;19.604;2022-12-07T05:05:23;62.05;;;33.42;;
28627;SDS011;15815;46.760;19.604;2022-12-07T05:07:49;63.60;;;36.13;;
28627;SDS011;15815;46.760;19.604;2022-12-07T05:10:14;61.35;;;32.55;;
28627;SDS011;15815;46.760;19.604;2022-12-07T05:12:43;53.20;;;29.55;;
28627;SDS011;15815;46.760;19.604;2022-12-07T05:15:08;56.63;;;34.45;;
28627;SDS011;15815;46.760;19.604;2022-12-07T05:17:34;56.60;;;32.85;;
28627;SDS011;15815;46.760;19.604;2022-12-07T05:19:59;59.50;;;31.55;;
28627;SDS011;15815;46.760;19.604;2022-12-07T05:22:24;61.05;;;33.00;;
28627;SDS011;15815;46.760;19.604;2022-12-07T05:24:56;112.05;;;48.95;;
28627;SDS011;15815;46.760;19.604;2022-12-07T05:27:21;88.60;;;42.35;;
28627;SDS011;15815;46.760;19.604;2022-12-07T05:29:47;95.45;;;47.22;;
28627;SDS011;15815;46.760;19.604;2022-12-07T05:32:12;99.13;;;44.30;;
28627;SDS011;15815;46.760;19.604;2022-12-07T05:34:37;110.00;;;48.67;;
28627;SDS011;15815;46.760;19.604;2022-12-07T05:37:06;158.45;;;61.47;;
28627;SDS011;15815;46.760;19.604;2022-12-07T05:39:31;146.90;;;58.10;;
28627;SDS011;15815;46.760;19.604;2022-12-07T05:41:56;158.70;;;61.65;;
28627;SDS011;15815;46.760;19.604;2022-12-07T05:44:41;108.57;;;48.55;;
28627;SDS011;15815;46.760;19.604;2022-12-07T05:47:08;113.30;;;51.17;;
28627;SDS011;15815;46.760;19.604;2022-12-07T05:49:33;111.18;;;48.28;;
28627;SDS011;15815;46.760;19.604;2022-12-07T05:51:59;144.82;;;57.35;;
28627;SDS011;15815;46.760;19.604;2022-12-07T05:54:24;145.43;;;63.72;;
28627;SDS011;15815;46.760;19.604;2022-12-07T05:56:50;133.02;;;55.15;;
28627;SDS011;15815;46.760;19.604;2022-12-07T05:59:16;130.45;;;52.00;;
28627;SDS011;15815;46.760;19.604;2022-12-07T06:01:59;114.90;;;53.38;;
28627;SDS011;15815;46.760;19.604;2022-12-07T06:04:28;113.20;;;49.03;;
28627;SDS011;15815;46.760;19.604;2022-12-07T06:06:56;90.50;;;45.55;;
28627;SDS011;15815;46.760;19.604;2022-12-07T06:09:24;90.85;;;47.53;;
28627;SDS011;15815;46.760;19.604;2022-12-07T06:11:50;77.13;;;41.03;;
28627;SDS011;15815;46.760;19.604;2022-12-07T06:14:35;77.53;;;41.38;;
28627;SDS011;15815;46.760;19.604;2022-12-07T06:17:01;81.18;;;42.10;;
28627;SDS011;15815;46.760;19.604;2022-12-07T06:19:26;81.22;;;42.92;;
28627;SDS011;15815;46.760;19.604;2022-12-07T06:21:52;83.50;;;41.50;;
28627;SDS011;15815;46.760;19.604;2022-12-07T06:24:18;82.70;;;42.03;;
28627;SDS011;15815;46.760;19.604;2022-12-07T06:26:43;81.32;;;39.53;;
28627;SDS011;15815;46.760;19.604;2022-12-07T06:29:09;67.53;;;36.83;;
28627;SDS011;15815;46.760;19.604;2022-12-07T06:31:36;76.93;;;38.85;;
28627;SDS011;15815;46.760;19.604;2022-12-07T06:34:03;72.40;;;36.42;;
28627;SDS011;15815;46.760;19.604;2022-12-07T06:36:30;81.10;;;40.47;;
28627;SDS011;15815;46.760;19.604;2022-12-07T06:38:55;83.47;;;45.35;;
28627;SDS011;15815;46.760;19.604;2022-12-07T06:41:21;82.85;;;42.40;;
28627;SDS011;15815;46.760;19.604;2022-12-07T06:43:47;84.60;;;43.58;;
28627;SDS011;15815;46.760;19.604;2022-12-07T06:46:13;79.43;;;41.42;;
28627;SDS011;15815;46.760;19.604;2022-12-07T06:48:41;78.40;;;38.22;;
28627;SDS011;15815;46.760;19.604;2022-12-07T06:51:07;73.63;;;37.17;;
28627;SDS011;15815;46.760;19.604;2022-12-07T06:53:33;83.32;;;41.90;;
28627;SDS011;15815;46.760;19.604;2022-12-07T06:55:58;111.60;;;59.78;;
28627;SDS011;15815;46.760;19.604;2022-12-07T06:58:24;174.18;;;85.28;;
28627;SDS011;15815;46.760;19.604;2022-12-07T07:00:49;152.18;;;79.90;;
28627;SDS011;15815;46.760;19.604;2022-12-07T07:03:15;136.77;;;71.07;;
28627;SDS011;15815;46.760;19.604;2022-12-07T07:05:41;122.22;;;65.35;;
28627;SDS011;15815;46.760;19.604;2022-12-07T07:08:07;116.32;;;61.85;;
28627;SDS011;15815;46.760;19.604;2022-12-07T07:10:33;116.65;;;60.30;;
28627;SDS011;15815;46.760;19.604;2022-12-07T07:12:58;106.63;;;56.83;;
28627;SDS011;15815;46.760;19.604;2022-12-07T07:15:24;105.07;;;56.22;;
28627;SDS011;15815;46.760;19.604;2022-12-07T07:17:49;102.55;;;55.90;;
28627;SDS011;15815;46.760;19.604;2022-12-07T07:20:15;253.32;;;129.65;;
28627;SDS011;15815;46.760;19.604;2022-12-07T07:22:40;344.38;;;179.32;;
28627;SDS011;15815;46.760;19.604;2022-12-07T07:25:06;179.88;;;97.85;;
28627;SDS011;15815;46.760;19.604;2022-12-07T07:27:31;236.13;;;116.70;;
28627;SDS011;15815;46.760;19.604;2022-12-07T07:29:57;136.02;;;70.82;;
28627;SDS011;15815;46.760;19.604;2022-12-07T07:32:22;79.32;;;49.28;;
28627;SDS011;15815;46.760;19.604;2022-12-07T07:34:48;77.10;;;46.30;;
28627;SDS011;15815;46.760;19.604;2022-12-07T07:37:13;66.60;;;38.53;;
28627;SDS011;15815;46.760;19.604;2022-12-07T07:39:39;69.53;;;38.45;;
28627;SDS011;15815;46.760;19.604;2022-12-07T07:42:04;72.70;;;40.38;;
28627;SDS011;15815;46.760;19.604;2022-12-07T07:44:30;63.88;;;33.50;;
28627;SDS011;15815;46.760;19.604;2022-12-07T07:46:55;61.53;;;35.55;;
28627;SDS011;15815;46.760;19.604;2022-12-07T07:49:20;63.42;;;36.20;;
28627;SDS011;15815;46.760;19.604;2022-12-07T07:51:46;29.80;;;21.10;;
28627;SDS011;15815;46.760;19.604;2022-12-07T07:54:11;24.00;;;17.23;;
28627;SDS011;15815;46.760;19.604;2022-12-07T07:56:36;26.13;;;19.60;;
28627;SDS011;15815;46.760;19.604;2022-12-07T07:59:02;22.00;;;16.17;;
28627;SDS011;15815;46.760;19.604;2022-12-07T08:01:27;24.98;;;17.20;;
28627;SDS011;15815;46.760;19.604;2022-12-07T08:03:52;29.85;;;21.83;;
28627;SDS011;15815;46.760;19.604;2022-12-07T08:06:18;32.72;;;22.27;;
28627;SDS011;15815;46.760;19.604;2022-12-07T08:08:43;28.50;;;20.38;;
28627;SDS011;15815;46.760;19.604;2022-12-07T08:11:08;21.55;;;16.10;;
28627;SDS011;15815;46.760;19.604;2022-12-07T08:13:34;20.42;;;15.80;;
28627;SDS011;15815;46.760;19.604;2022-12-07T08:16:03;19.27;;;14.88;;
28627;SDS011;15815;46.760;19.604;2022-12-07T08:18:30;19.33;;;14.40;;
28627;SDS011;15815;46.760;19.604;2022-12-07T08:21:00;23.65;;;18.08;;
28627;SDS011;15815;46.760;19.604;2022-12-07T08:23:28;17.52;;;14.35;;
28627;SDS011;15815;46.760;19.604;2022-12-07T08:25:54;12.93;;;10.70;;
28627;SDS011;15815;46.760;19.604;2022-12-07T08:28:20;13.73;;;11.40;;
28627;SDS011;15815;46.760;19.604;2022-12-07T08:30:45;13.73;;;11.65;;
28627;SDS011;15815;46.760;19.604;2022-12-07T08:33:11;12.43;;;10.32;;
28627;SDS011;15815;46.760;19.604;2022-12-07T08:35:36;10.75;;;7.88;;
28627;SDS011;15815;46.760;19.604;2022-12-07T08:38:02;11.80;;;7.50;;
28627;SDS011;15815;46.760;19.604;2022-12-07T08:40:28;10.05;;;7.97;;
28627;SDS011;15815;46.760;19.604;2022-12-07T08:42:54;9.70;;;7.50;;
28627;SDS011;15815;46.760;19.604;2022-12-07T08:45:20;7.65;;;6.40;;
28627;SDS011;15815;46.760;19.604;2022-12-07T08:47:51;8.50;;;6.85;;
28627;SDS011;15815;46.760;19.604;2022-12-07T08:50:20;9.73;;;8.40;;
28627;SDS011;15815;46.760;19.604;2022-12-07T08:52:52;9.35;;;7.43;;
28627;SDS011;15815;46.760;19.604;2022-12-07T08:55:20;8.60;;;7.28;;
28627;SDS011;15815;46.760;19.604;2022-12-07T08:57:46;8.85;;;7.15;;
28627;SDS011;15815;46.760;19.604;2022-12-07T09:00:12;10.68;;;8.75;;
28627;SDS011;15815;46.760;19.604;2022-12-07T09:02:38;9.25;;;7.32;;
28627;SDS011;15815;46.760;19.604;2022-12-07T09:05:07;7.47;;;6.50;;
28627;SDS011;15815;46.760;19.604;2022-12-07T09:07:32;10.07;;;6.70;;
28627;SDS011;15815;46.760;19.604;2022-12-07T09:09:59;8.18;;;6.70;;
28627;SDS011;15815;46.760;19.604;2022-12-07T09:12:24;7.28;;;6.57;;
28627;SDS011;15815;46.760;19.604;2022-12-07T09:14:50;7.55;;;6.75;;
28627;SDS011;15815;46.760;19.604;2022-12-07T09:17:15;10.73;;;7.00;;
28627;SDS011;15815;46.760;19.604;2022-12-07T09:19:41;7.63;;;6.07;;
28627;SDS011;15815;46.760;19.604;2022-12-07T09:22:07;9.27;;;7.43;;
28627;SDS011;15815;46.760;19.604;2022-12-07T09:24:33;9.90;;;7.47;;
28627;SDS011;15815;46.760;19.604;2022-12-07T09:26:58;7.88;;;6.88;;
28627;SDS011;15815;46.760;19.604;2022-12-07T09:29:24;11.65;;;9.45;;
28627;SDS011;15815;46.760;19.604;2022-12-07T09:31:50;9.13;;;8.05;;
28627;SDS011;15815;46.760;19.604;2022-12-07T09:34:16;10.73;;;8.15;;
28627;SDS011;15815;46.760;19.604;2022-12-07T09:36:42;13.10;;;11.77;;
28627;SDS011;15815;46.760;19.604;2022-12-07T09:39:09;10.07;;;7.15;;
28627;SDS011;15815;46.760;19.604;2022-12-07T09:41:37;13.35;;;11.70;;
28627;SDS011;15815;46.760;19.604;2022-12-07T09:44:05;37.65;;;23.38;;
28627;SDS011;15815;46.760;19.604;2022-12-07T09:46:39;19.75;;;14.80;;
28627;SDS011;15815;46.760;19.604;2022-12-07T09:49:08;10.57;;;9.15;;
28627;SDS011;15815;46.760;19.604;2022-12-07T09:51:37;9.60;;;7.82;;
28627;SDS011;15815;46.760;19.604;2022-12-07T09:54:03;8.60;;;7.25;;
28627;SDS011;15815;46.760;19.604;2022-12-07T09:56:28;12.05;;;7.30;;
28627;SDS011;15815;46.760;19.604;2022-12-07T09:58:59;12.85;;;8.65;;
28627;SDS011;15815;46.760;19.604;2022-12-07T10:01:30;11.57;;;7.55;;
28627;SDS011;15815;46.760;19.604;2022-12-07T10:04:02;13.80;;;9.77;;
28627;SDS011;15815;46.760;19.604;2022-12-07T10:06:37;15.27;;;9.35;;
28627;SDS011;15815;46.760;19.604;2022-12-07T10:09:08;12.23;;;8.77;;
28627;SDS011;15815;46.760;19.604;2022-12-07T10:14:10;13.93;;;11.07;;
28627;SDS011;15815;46.760;19.604;2022-12-07T10:16:39;10.90;;;8.38;;
28627;SDS011;15815;46.760;19.604;2022-12-07T10:19:26;13.13;;;9.50;;
28627;SDS011;15815;46.760;19.604;2022-12-07T10:22:12;13.15;;;10.95;;
28627;SDS011;15815;46.760;19.604;2022-12-07T10:24:39;11.27;;;9.25;;
28627;SDS011;15815;46.760;19.604;2022-12-07T10:27:26;11.52;;;9.63;;
28627;SDS011;15815;46.760;19.604;2022-12-07T10:29:55;13.02;;;9.73;;
28627;SDS011;15815;46.760;19.604;2022-12-07T10:32:33;11.00;;;9.75;;
28627;SDS011;15815;46.760;19.604;2022-12-07T10:35:18;12.35;;;10.18;;
28627;SDS011;15815;46.760;19.604;2022-12-07T10:37:43;10.82;;;9.27;;
28627;SDS011;15815;46.760;19.604;2022-12-07T10:40:52;9.77;;;8.25;;
28627;SDS011;15815;46.760;19.604;2022-12-07T10:43:01;9.85;;;7.50;;
28627;SDS011;15815;46.760;19.604;2022-12-07T10:48:18;9.57;;;7.75;;
28627;SDS011;15815;46.760;19.604;2022-12-07T11:15:56;12.23;;;9.27;;
28627;SDS011;15815;46.760;19.604;2022-12-07T11:37:34;14.40;;;10.17;;
28627;SDS011;15815;46.760;19.604;2022-12-07T11:40:24;16.05;;;11.27;;
28627;SDS011;15815;46.760;19.604;2022-12-07T11:45:39;15.38;;;10.50;;
28627;SDS011;15815;46.760;19.604;2022-12-07T11:48:12;15.15;;;10.18;;
28627;SDS011;15815;46.760;19.604;2022-12-07T11:51:08;17.67;;;10.10;;
28627;SDS011;15815;46.760;19.604;2022-12-07T11:56:15;17.55;;;13.32;;
28627;SDS011;15815;46.760;19.604;2022-12-07T11:58:57;17.77;;;10.90;;
28627;SDS011;15815;46.760;19.604;2022-12-07T12:06:39;13.38;;;9.77;;
28627;SDS011;15815;46.760;19.604;2022-12-07T12:14:46;27.02;;;14.63;;
28627;SDS011;15815;46.760;19.604;2022-12-07T12:25:44;11.95;;;7.63;;
28627;SDS011;15815;46.760;19.604;2022-12-07T12:31:07;13.48;;;10.20;;
28627;SDS011;15815;46.760;19.604;2022-12-07T12:33:35;16.75;;;11.00;;
28627;SDS011;15815;46.760;19.604;2022-12-07T12:36:17;28.83;;;19.50;;
28627;SDS011;15815;46.760;19.604;2022-12-07T12:39:07;26.67;;;16.90;;
28627;SDS011;15815;46.760;19.604;2022-12-07T12:51:49;15.10;;;10.68;;
28627;SDS011;15815;46.760;19.604;2022-12-07T12:57:08;19.45;;;12.95;;
28627;SDS011;15815;46.760;19.604;2022-12-07T13:02:21;17.00;;;11.30;;
28627;SDS011;15815;46.760;19.604;2022-12-07T13:13:00;19.00;;;11.38;;
28627;SDS011;15815;46.760;19.604;2022-12-07T13:15:34;15.52;;;10.35;;
28627;SDS011;15815;46.760;19.604;2022-12-07T13:28:49;14.88;;;11.32;;
28627;SDS011;15815;46.760;19.604;2022-12-07T13:33:59;39.25;;;22.58;;
28627;SDS011;15815;46.760;19.604;2022-12-07T13:36:38;30.90;;;16.40;;
28627;SDS011;15815;46.760;19.604;2022-12-07T13:41:41;28.30;;;17.05;;
28627;SDS011;15815;46.760;19.604;2022-12-07T13:44:14;25.65;;;16.35;;
28627;SDS011;15815;46.760;19.604;2022-12-07T13:46:43;44.50;;;21.63;;
28627;SDS011;15815;46.760;19.604;2022-12-07T13:49:18;35.28;;;20.63;;
28627;SDS011;15815;46.760;19.604;2022-12-07T13:51:49;22.60;;;14.80;;
28627;SDS011;15815;46.760;19.604;2022-12-07T13:54:16;14.95;;;10.02;;
28627;SDS011;15815;46.760;19.604;2022-12-07T13:56:42;21.77;;;13.27;;
28627;SDS011;15815;46.760;19.604;2022-12-07T13:59:16;17.45;;;10.95;;
28627;SDS011;15815;46.760;19.604;2022-12-07T14:01:44;18.95;;;13.23;;
28627;SDS011;15815;46.760;19.604;2022-12-07T14:04:24;22.05;;;13.07;;
28627;SDS011;15815;46.760;19.604;2022-12-07T14:06:55;13.95;;;9.98;;
28627;SDS011;15815;46.760;19.604;2022-12-07T14:09:22;14.63;;;9.00;;
28627;SDS011;15815;46.760;19.604;2022-12-07T14:11:49;29.17;;;11.43;;
28627;SDS011;15815;46.760;19.604;2022-12-07T14:14:18;64.63;;;41.78;;
28627;SDS011;15815;46.760;19.604;2022-12-07T14:16:54;40.38;;;32.05;;
28627;SDS011;15815;46.760;19.604;2022-12-07T14:19:43;24.13;;;19.25;;
28627;SDS011;15815;46.760;19.604;2022-12-07T14:22:28;14.15;;;9.38;;
28627;SDS011;15815;46.760;19.604;2022-12-07T14:25:13;11.98;;;9.82;;
28627;SDS011;15815;46.760;19.604;2022-12-07T14:27:52;14.82;;;11.63;;
28627;SDS011;15815;46.760;19.604;2022-12-07T14:30:26;18.77;;;16.85;;
28627;SDS011;15815;46.760;19.604;2022-12-07T14:33:00;26.35;;;17.60;;
28627;SDS011;15815;46.760;19.604;2022-12-07T14:35:28;15.35;;;12.13;;
28627;SDS011;15815;46.760;19.604;2022-12-07T14:37:54;16.42;;;10.80;;
28627;SDS011;15815;46.760;19.604;2022-12-07T14:40:24;19.30;;;12.30;;
28627;SDS011;15815;46.760;19.604;2022-12-07T14:42:55;14.60;;;10.05;;
28627;SDS011;15815;46.760;19.604;2022-12-07T14:45:38;14.73;;;9.73;;
28627;SDS011;15815;46.760;19.604;2022-12-07T14:48:04;25.95;;;13.48;;
28627;SDS011;15815;46.760;19.604;2022-12-07T14:50:30;37.65;;;18.00;;
28627;SDS011;15815;46.760;19.604;2022-12-07T14:53:05;20.27;;;12.05;;
28627;SDS011;15815;46.760;19.604;2022-12-07T14:55:37;29.98;;;11.68;;
28627;SDS011;15815;46.760;19.604;2022-12-07T14:58:03;33.05;;;16.27;;
28627;SDS011;15815;46.760;19.604;2022-12-07T15:00:28;17.15;;;11.32;;
28627;SDS011;15815;46.760;19.604;2022-12-07T15:02:54;26.27;;;13.75;;
28627;SDS011;15815;46.760;19.604;2022-12-07T15:05:20;30.90;;;17.70;;
28627;SDS011;15815;46.760;19.604;2022-12-07T15:07:47;49.95;;;26.10;;
28627;SDS011;15815;46.760;19.604;2022-12-07T15:10:16;54.10;;;28.98;;
28627;SDS011;15815;46.760;19.604;2022-12-07T15:12:47;55.97;;;29.50;;
28627;SDS011;15815;46.760;19.604;2022-12-07T15:15:12;56.60;;;28.55;;
28627;SDS011;15815;46.760;19.604;2022-12-07T15:17:38;55.25;;;27.95;;
28627;SDS011;15815;46.760;19.604;2022-12-07T15:20:04;65.18;;;32.78;;
28627;SDS011;15815;46.760;19.604;2022-12-07T15:22:30;61.08;;;31.00;;
28627;SDS011;15815;46.760;19.604;2022-12-07T15:24:56;64.15;;;35.97;;
28627;SDS011;15815;46.760;19.604;2022-12-07T15:27:22;103.13;;;51.47;;
28627;SDS011;15815;46.760;19.604;2022-12-07T15:29:48;111.65;;;58.08;;
28627;SDS011;15815;46.760;19.604;2022-12-07T15:32:13;111.47;;;58.38;;
28627;SDS011;15815;46.760;19.604;2022-12-07T15:34:38;119.47;;;61.10;;
28627;SDS011;15815;46.760;19.604;2022-12-07T15:37:04;98.22;;;54.05;;
28627;SDS011;15815;46.760;19.604;2022-12-07T15:39:29;134.18;;;68.55;;
28627;SDS011;15815;46.760;19.604;2022-12-07T15:41:55;137.63;;;74.72;;
28627;SDS011;15815;46.760;19.604;2022-12-07T15:44:21;124.20;;;68.97;;
28627;SDS011;15815;46.760;19.604;2022-12-07T15:47:05;122.00;;;64.28;;
28627;SDS011;15815;46.760;19.604;2022-12-07T15:49:30;107.75;;;62.72;;
28627;SDS011;15815;46.760;19.604;2022-12-07T15:51:56;106.15;;;60.13;;
28627;SDS011;15815;46.760;19.604;2022-12-07T15:54:23;100.70;;;61.17;;
28627;SDS011;15815;46.760;19.604;2022-12-07T15:56:52;103.45;;;59.70;;
28627;SDS011;15815;46.760;19.604;2022-12-07T15:59:18;111.85;;;61.03;;
28627;SDS011;15815;46.760;19.604;2022-12-07T16:01:44;104.63;;;59.70;;
28627;SDS011;15815;46.760;19.604;2022-12-07T16:04:09;98.75;;;56.88;;
28627;SDS011;15815;46.760;19.604;2022-12-07T16:06:35;88.63;;;52.42;;
28627;SDS011;15815;46.760;19.604;2022-12-07T16:09:00;85.22;;;49.90;;
28627;SDS011;15815;46.760;19.604;2022-12-07T16:11:26;85.05;;;47.47;;
28627;SDS011;15815;46.760;19.604;2022-12-07T16:13:51;94.00;;;45.95;;
28627;SDS011;15815;46.760;19.604;2022-12-07T16:16:17;78.68;;;41.88;;
28627;SDS011;15815;46.760;19.604;2022-12-07T16:18:44;80.20;;;43.58;;
28627;SDS011;15815;46.760;19.604;2022-12-07T16:21:11;89.80;;;46.88;;
28627;SDS011;15815;46.760;19.604;2022-12-07T16:23:40;86.35;;;46.60;;
28627;SDS011;15815;46.760;19.604;2022-12-07T16:28:32;93.57;;;46.65;;
28627;SDS011;15815;46.760;19.604;2022-12-07T16:31:10;87.35;;;45.92;;
28627;SDS011;15815;46.760;19.604;2022-12-07T16:33:38;84.85;;;44.80;;
28627;SDS011;15815;46.760;19.604;2022-12-07T16:36:04;79.93;;;40.97;;
28627;SDS011;15815;46.760;19.604;2022-12-07T16:38:33;92.30;;;44.70;;
28627;SDS011;15815;46.760;19.604;2022-12-07T16:40:59;85.38;;;42.03;;
28627;SDS011;15815;46.760;19.604;2022-12-07T16:43:25;87.60;;;42.15;;
28627;SDS011;15815;46.760;19.604;2022-12-07T16:45:50;79.70;;;40.45;;
28627;SDS011;15815;46.760;19.604;2022-12-07T16:48:16;84.00;;;42.28;;
28627;SDS011;15815;46.760;19.604;2022-12-07T16:50:42;81.70;;;41.80;;
28627;SDS011;15815;46.760;19.604;2022-12-07T16:53:09;93.32;;;46.03;;
28627;SDS011;15815;46.760;19.604;2022-12-07T16:55:39;95.40;;;44.72;;